Time;durP1;ratioP1;P1;durP2;ratioP2;P2;SDS_P1;SDS_P2;PMS_P1;PMS_P2;Temp;Humidity;BMP_temperature;BMP_pressure;BME280_temperature;BME280_humidity;BME280_pressure;Samples;Min_cycle;Max_cycle;Signal;HPM_P1;HPM_P2
2024/01/10 00:00:08;;;;;;;4.73;2.27;;;;;;;;;;5006724;28;20186;-76
2024/01/10 00:02:34;;;;;;;4.20;2.43;;;;;;;;;;5003873;28;20270;-76
2024/01/10 00:04:59;;;;;;;4.57;1.60;;;;;;;;;;5006358;28;20274;-76
2024/01/10 00:07:25;;;;;;;4.00;1.80;;;;;;;;;;5000941;28;20211;-75
2024/01/10 00:09:50;;;;;;;5.77;2.10;;;;;;;;;;5000867;28;20187;-76
2024/01/10 00:12:16;;;;;;;5.20;2.37;;;;;;;;;;5007733;28;20191;-76
2024/01/10 00:14:41;;;;;;;4.87;2.10;;;;;;;;;;5007929;28;20282;-77
2024/01/10 00:17:07;;;;;;;6.97;2.50;;;;;;;;;;5008505;28;20216;-76
2024/01/10 00:19:32;;;;;;;5.20;2.40;;;;;;;;;;5009758;28;20198;-76
2024/01/10 00:21:58;;;;;;;4.93;2.20;;;;;;;;;;5024022;28;20244;-76
2024/01/10 00:24:23;;;;;;;10.53;2.13;;;;;;;;;;5026169;28;20205;-76
2024/01/10 00:26:49;;;;;;;7.00;2.30;;;;;;;;;;5010478;28;20614;-77
2024/01/10 00:29:14;;;;;;;2.67;1.83;;;;;;;;;;5026057;28;20205;-78
2024/01/10 00:31:40;;;;;;;6.37;2.47;;;;;;;;;;5019675;28;20193;-76
2024/01/10 00:34:06;;;;;;;6.13;2.47;;;;;;;;;;5034299;28;20198;-77
2024/01/10 00:36:31;;;;;;;6.10;2.27;;;;;;;;;;5017705;28;20343;-76
2024/01/10 00:38:57;;;;;;;5.53;2.93;;;;;;;;;;5027568;28;20182;-75
2024/01/10 00:41:22;;;;;;;9.17;2.57;;;;;;;;;;5031886;28;20186;-77
2024/01/10 00:43:47;;;;;;;5.93;2.27;;;;;;;;;;5014144;28;20287;-77
2024/01/10 00:46:13;;;;;;;4.53;2.30;;;;;;;;;;5011894;28;20707;-77
2024/01/10 00:48:38;;;;;;;6.17;2.57;;;;;;;;;;5029196;28;20213;-76
2024/01/10 00:51:08;;;;;;;6.63;2.40;;;;;;;;;;5012560;28;20340;-77
2024/01/10 00:53:34;;;;;;;5.97;2.60;;;;;;;;;;5010939;28;20653;-76
2024/01/10 00:55:59;;;;;;;5.63;2.67;;;;;;;;;;5030463;28;20208;-76
2024/01/10 00:58:25;;;;;;;6.53;2.30;;;;;;;;;;5019836;28;20595;-76
2024/01/10 01:00:50;;;;;;;6.00;2.13;;;;;;;;;;5034985;28;20704;-76
2024/01/10 01:03:16;;;;;;;5.33;2.33;;;;;;;;;;5031564;28;20216;-76
2024/01/10 01:05:41;;;;;;;4.63;2.20;;;;;;;;;;5013942;28;20182;-75
2024/01/10 01:08:06;;;;;;;5.40;2.37;;;;;;;;;;5008025;28;20206;-76
2024/01/10 01:10:33;;;;;;;7.37;2.90;;;;;;;;;;5023592;28;20190;-76
2024/01/10 01:12:59;;;;;;;7.13;2.40;;;;;;;;;;5031014;28;20227;-76
2024/01/10 01:15:24;;;;;;;7.67;2.37;;;;;;;;;;5031577;28;20593;-76
2024/01/10 01:17:49;;;;;;;5.87;2.23;;;;;;;;;;5030510;28;20186;-76
2024/01/10 01:20:16;;;;;;;4.90;2.50;;;;;;;;;;5014104;28;20588;-77
2024/01/10 01:22:42;;;;;;;5.43;2.23;;;;;;;;;;5010168;28;20532;-77
2024/01/10 01:25:07;;;;;;;5.90;2.30;;;;;;;;;;5014829;28;20636;-76
2024/01/10 01:27:34;;;;;;;3.97;2.20;;;;;;;;;;5023569;28;20643;-77
2024/01/10 01:29:59;;;;;;;4.83;2.60;;;;;;;;;;5007907;28;20212;-77
2024/01/10 01:32:24;;;;;;;7.13;2.60;;;;;;;;;;5015963;28;20200;-77
2024/01/10 01:34:50;;;;;;;6.63;2.50;;;;;;;;;;5018775;28;20210;-76
2024/01/10 01:37:15;;;;;;;5.27;2.40;;;;;;;;;;5013667;28;20514;-77
2024/01/10 01:39:41;;;;;;;7.00;2.57;;;;;;;;;;4997432;28;20323;-76
2024/01/10 01:42:06;;;;;;;7.07;3.17;;;;;;;;;;5025484;28;20195;-76
2024/01/10 01:44:31;;;;;;;7.07;2.50;;;;;;;;;;5017726;28;20200;-76
2024/01/10 01:46:57;;;;;;;3.63;2.07;;;;;;;;;;5028434;28;20186;-76
2024/01/10 01:49:25;;;;;;;6.27;2.47;;;;;;;;;;4995586;28;20226;-76
2024/01/10 01:51:51;;;;;;;6.47;2.40;;;;;;;;;;5027716;28;20289;-76
2024/01/10 01:54:16;;;;;;;5.50;2.70;;;;;;;;;;5030083;28;20201;-76
2024/01/10 01:56:44;;;;;;;6.20;2.77;;;;;;;;;;5022063;28;20680;-76
2024/01/10 01:59:11;;;;;;;5.60;2.70;;;;;;;;;;5023403;28;20205;-76
2024/01/10 02:01:36;;;;;;;5.27;2.23;;;;;;;;;;5029523;28;20194;-76
2024/01/10 02:04:02;;;;;;;7.93;2.90;;;;;;;;;;5030996;28;20205;-77
2024/01/10 02:06:29;;;;;;;7.10;2.63;;;;;;;;;;5016455;28;20193;-77
2024/01/10 02:08:56;;;;;;;6.27;2.80;;;;;;;;;;5031215;28;20206;-77
2024/01/10 02:11:21;;;;;;;8.27;2.93;;;;;;;;;;4998191;28;20187;-76
2024/01/10 02:13:47;;;;;;;6.13;2.60;;;;;;;;;;5032526;28;20193;-76
2024/01/10 02:16:13;;;;;;;4.90;2.43;;;;;;;;;;5003143;28;20236;-76
2024/01/10 02:18:38;;;;;;;8.23;2.87;;;;;;;;;;5033505;28;20560;-76
2024/01/10 02:21:04;;;;;;;7.87;2.70;;;;;;;;;;5034280;28;20706;-76
2024/01/10 02:23:29;;;;;;;5.97;2.60;;;;;;;;;;5030921;28;20272;-76
2024/01/10 02:25:55;;;;;;;6.23;2.47;;;;;;;;;;4995923;28;20194;-76
2024/01/10 02:28:20;;;;;;;3.93;1.93;;;;;;;;;;5009952;28;20586;-76
2024/01/10 02:30:47;;;;;;;8.67;2.63;;;;;;;;;;5012266;28;20198;-76
2024/01/10 02:33:12;;;;;;;6.23;2.77;;;;;;;;;;5010097;28;20191;-76
2024/01/10 02:35:38;;;;;;;5.87;2.20;;;;;;;;;;5022843;28;20713;-76
2024/01/10 02:38:03;;;;;;;6.27;2.80;;;;;;;;;;5019134;28;20183;-77
2024/01/10 02:40:29;;;;;;;4.83;2.23;;;;;;;;;;5005798;28;20186;-76
2024/01/10 02:42:54;;;;;;;4.03;2.60;;;;;;;;;;5012608;28;20250;-76
2024/01/10 02:45:20;;;;;;;5.37;2.80;;;;;;;;;;5029853;28;20194;-76
2024/01/10 02:47:46;;;;;;;5.07;2.37;;;;;;;;;;5028995;28;20347;-76
2024/01/10 02:50:11;;;;;;;7.63;2.87;;;;;;;;;;5015683;28;20651;-76
2024/01/10 02:52:36;;;;;;;6.03;2.60;;;;;;;;;;5028106;28;20190;-76
2024/01/10 02:55:02;;;;;;;6.67;2.77;;;;;;;;;;5008826;28;20190;-76
2024/01/10 02:57:27;;;;;;;6.43;2.70;;;;;;;;;;5014354;28;20688;-76
2024/01/10 02:59:53;;;;;;;4.87;2.30;;;;;;;;;;5028179;28;20396;-76
2024/01/10 03:02:18;;;;;;;6.30;2.77;;;;;;;;;;5010255;28;20218;-76
2024/01/10 03:04:46;;;;;;;6.60;3.03;;;;;;;;;;5010971;28;20201;-76
2024/01/10 03:07:12;;;;;;;7.27;2.67;;;;;;;;;;5027481;28;20218;-76
2024/01/10 03:09:37;;;;;;;7.53;2.53;;;;;;;;;;4994561;28;20375;-76
2024/01/10 03:12:03;;;;;;;6.70;2.83;;;;;;;;;;5031925;28;20568;-76
2024/01/10 03:14:28;;;;;;;8.20;2.83;;;;;;;;;;5004581;28;20194;-76
2024/01/10 03:16:54;;;;;;;5.50;2.60;;;;;;;;;;4999991;28;20187;-76
2024/01/10 03:19:19;;;;;;;6.67;2.53;;;;;;;;;;5025486;28;20700;-76
2024/01/10 03:21:45;;;;;;;7.13;3.10;;;;;;;;;;5027714;28;20261;-76
2024/01/10 03:24:10;;;;;;;6.53;2.57;;;;;;;;;;5011520;28;20263;-75
2024/01/10 03:26:35;;;;;;;5.63;2.80;;;;;;;;;;5029366;28;20194;-75
2024/01/10 03:29:01;;;;;;;7.10;2.93;;;;;;;;;;5014239;28;20217;-75
2024/01/10 03:31:28;;;;;;;6.43;2.60;;;;;;;;;;5033343;28;20645;-76
2024/01/10 03:33:54;;;;;;;6.53;2.50;;;;;;;;;;5028671;28;20267;-76
2024/01/10 03:36:19;;;;;;;5.10;2.27;;;;;;;;;;5009265;28;20198;-75
2024/01/10 03:38:45;;;;;;;6.33;2.90;;;;;;;;;;5010981;28;20836;-75
2024/01/10 03:41:14;;;;;;;6.67;2.60;;;;;;;;;;5012499;28;20293;-76
2024/01/10 03:43:40;;;;;;;8.87;2.80;;;;;;;;;;5019845;28;20644;-76
2024/01/10 03:46:05;;;;;;;8.50;3.47;;;;;;;;;;5015381;28;20236;-76
2024/01/10 03:48:31;;;;;;;6.20;2.80;;;;;;;;;;5006525;28;20206;-76
2024/01/10 03:50:56;;;;;;;5.57;2.53;;;;;;;;;;5037299;28;20193;-76
2024/01/10 03:53:22;;;;;;;5.37;2.93;;;;;;;;;;5037292;28;20218;-76
2024/01/10 03:55:47;;;;;;;6.97;2.40;;;;;;;;;;5031850;28;20212;-75
2024/01/10 03:58:12;;;;;;;6.43;2.90;;;;;;;;;;5011920;28;20194;-75
2024/01/10 04:00:38;;;;;;;7.33;3.03;;;;;;;;;;5011676;28;20633;-75
2024/01/10 04:03:03;;;;;;;6.87;2.50;;;;;;;;;;5011331;28;20679;-76
2024/01/10 04:05:29;;;;;;;5.33;2.53;;;;;;;;;;5027032;28;20190;-76
2024/01/10 04:07:56;;;;;;;5.53;2.57;;;;;;;;;;5027074;28;20206;-76
2024/01/10 04:10:22;;;;;;;9.37;3.07;;;;;;;;;;5009647;28;20194;-76
2024/01/10 04:12:48;;;;;;;7.47;3.30;;;;;;;;;;5028219;28;20443;-76
2024/01/10 04:15:13;;;;;;;10.67;3.60;;;;;;;;;;5028134;28;20245;-76
2024/01/10 04:17:39;;;;;;;7.77;2.93;;;;;;;;;;5028085;28;20528;-77
2024/01/10 04:20:05;;;;;;;6.13;2.90;;;;;;;;;;5024106;28;20191;-76
2024/01/10 04:22:31;;;;;;;8.17;3.37;;;;;;;;;;5016924;28;20234;-76
2024/01/10 04:25:00;;;;;;;7.83;2.87;;;;;;;;;;5026933;28;20658;-76
2024/01/10 04:27:27;;;;;;;6.90;3.17;;;;;;;;;;5028104;28;20698;-76
2024/01/10 04:29:53;;;;;;;6.93;3.13;;;;;;;;;;5015675;28;20193;-76
2024/01/10 04:32:18;;;;;;;12.73;3.30;;;;;;;;;;5011074;28;20564;-76
2024/01/10 04:34:44;;;;;;;6.00;2.80;;;;;;;;;;5024128;28;20199;-76
2024/01/10 04:37:09;;;;;;;7.13;3.03;;;;;;;;;;5003429;28;20198;-76
2024/01/10 04:39:35;;;;;;;6.87;2.80;;;;;;;;;;5030383;28;20197;-75
2024/01/10 04:42:01;;;;;;;10.60;2.90;;;;;;;;;;5027408;28;20221;-75
2024/01/10 04:44:27;;;;;;;7.63;3.20;;;;;;;;;;5027870;28;20257;-76
2024/01/10 04:46:52;;;;;;;6.77;3.50;;;;;;;;;;5011478;28;20249;-76
2024/01/10 04:49:18;;;;;;;8.63;3.43;;;;;;;;;;5025058;28;20791;-75
2024/01/10 04:51:43;;;;;;;5.90;2.70;;;;;;;;;;5009328;28;20200;-76
2024/01/10 04:54:09;;;;;;;10.17;3.70;;;;;;;;;;5028646;28;20194;-76
2024/01/10 04:56:38;;;;;;;8.27;3.13;;;;;;;;;;5035077;28;20516;-76
2024/01/10 04:59:04;;;;;;;7.30;3.60;;;;;;;;;;5015687;28;20191;-76
2024/01/10 05:01:30;;;;;;;9.30;3.53;;;;;;;;;;5027124;28;20247;-76
2024/01/10 05:03:55;;;;;;;8.47;3.77;;;;;;;;;;5019865;28;20205;-76
2024/01/10 05:06:21;;;;;;;11.27;3.93;;;;;;;;;;5025994;28;20393;-76
2024/01/10 05:08:46;;;;;;;10.23;3.77;;;;;;;;;;5037684;28;20705;-76
2024/01/10 05:11:13;;;;;;;8.97;3.53;;;;;;;;;;5013080;28;20189;-76
2024/01/10 05:13:39;;;;;;;8.37;3.80;;;;;;;;;;5037740;28;20190;-77
2024/01/10 05:16:05;;;;;;;8.00;3.47;;;;;;;;;;5027308;28;20193;-76
2024/01/10 05:18:30;;;;;;;8.17;3.50;;;;;;;;;;5026512;28;20214;-76
2024/01/10 05:20:57;;;;;;;8.30;3.57;;;;;;;;;;5024098;28;20303;-76
2024/01/10 05:23:23;;;;;;;8.83;3.63;;;;;;;;;;5034322;28;20194;-76
2024/01/10 05:25:48;;;;;;;9.40;4.00;;;;;;;;;;5028905;28;20287;-77
2024/01/10 05:28:14;;;;;;;7.37;3.27;;;;;;;;;;5012171;28;20210;-77
2024/01/10 05:30:39;;;;;;;10.30;4.03;;;;;;;;;;4997043;28;20194;-76
2024/01/10 05:33:04;;;;;;;10.57;3.87;;;;;;;;;;5030364;28;20263;-76
2024/01/10 05:35:30;;;;;;;9.83;3.70;;;;;;;;;;5010068;28;20563;-75
2024/01/10 05:37:56;;;;;;;12.23;4.00;;;;;;;;;;5030703;28;20201;-75
2024/01/10 05:40:21;;;;;;;11.77;4.30;;;;;;;;;;5027746;28;20629;-76
2024/01/10 05:42:47;;;;;;;9.07;3.70;;;;;;;;;;5028554;28;20618;-76
2024/01/10 05:45:12;;;;;;;10.60;3.57;;;;;;;;;;5013191;28;20305;-76
2024/01/10 05:47:38;;;;;;;10.40;4.30;;;;;;;;;;5007625;28;20253;-76
2024/01/10 05:50:06;;;;;;;8.37;3.60;;;;;;;;;;5026989;28;20566;-76
2024/01/10 05:52:33;;;;;;;12.53;4.93;;;;;;;;;;4996489;28;20195;-77
2024/01/10 05:54:59;;;;;;;11.37;4.10;;;;;;;;;;5013137;28;20199;-76
2024/01/10 05:57:24;;;;;;;10.83;4.00;;;;;;;;;;5030796;28;20186;-76
2024/01/10 05:59:52;;;;;;;8.20;3.90;;;;;;;;;;5007909;28;20197;-76
2024/01/10 06:02:17;;;;;;;9.73;3.57;;;;;;;;;;5026353;28;20679;-76
2024/01/10 06:04:43;;;;;;;11.53;4.57;;;;;;;;;;5030353;28;20202;-76
2024/01/10 06:07:08;;;;;;;8.63;4.00;;;;;;;;;;5028355;28;20189;-76
2024/01/10 06:09:34;;;;;;;8.80;4.30;;;;;;;;;;5036862;28;20201;-76
2024/01/10 06:11:59;;;;;;;10.10;4.10;;;;;;;;;;5011656;28;20211;-76
2024/01/10 06:14:24;;;;;;;8.07;3.60;;;;;;;;;;5028799;28;20202;-76
2024/01/10 06:16:50;;;;;;;9.63;3.47;;;;;;;;;;5027960;28;20265;-75
2024/01/10 06:19:15;;;;;;;9.33;3.77;;;;;;;;;;5011579;28;20210;-75
2024/01/10 06:21:42;;;;;;;11.00;4.07;;;;;;;;;;5023997;28;20317;-76
2024/01/10 06:24:07;;;;;;;8.50;3.67;;;;;;;;;;4994994;28;20182;-75
2024/01/10 06:26:33;;;;;;;7.83;3.87;;;;;;;;;;5037131;28;20192;-75
2024/01/10 06:28:58;;;;;;;7.87;3.90;;;;;;;;;;5013325;28;20237;-75
2024/01/10 06:31:24;;;;;;;7.27;3.13;;;;;;;;;;5029360;28;20197;-75
2024/01/10 06:33:49;;;;;;;8.27;3.60;;;;;;;;;;5029735;28;20201;-76
2024/01/10 06:36:15;;;;;;;10.10;4.03;;;;;;;;;;5024740;28;20260;-75
2024/01/10 06:38:40;;;;;;;9.50;3.47;;;;;;;;;;5025076;28;20261;-76
2024/01/10 06:41:09;;;;;;;9.63;3.80;;;;;;;;;;5027850;28;20493;-75
2024/01/10 06:43:36;;;;;;;11.17;3.70;;;;;;;;;;5027047;28;20261;-76
2024/01/10 06:46:03;;;;;;;9.80;3.90;;;;;;;;;;5004413;28;20216;-76
2024/01/10 06:48:29;;;;;;;8.90;3.90;;;;;;;;;;5009077;28;20206;-76
2024/01/10 06:50:55;;;;;;;9.53;4.03;;;;;;;;;;5028614;28;20190;-75
2024/01/10 06:53:21;;;;;;;9.83;4.17;;;;;;;;;;5014995;28;20182;-76
2024/01/10 06:55:47;;;;;;;9.13;3.70;;;;;;;;;;5023908;28;20281;-75
2024/01/10 06:58:12;;;;;;;9.47;3.40;;;;;;;;;;5022953;28;20261;-76
2024/01/10 07:00:38;;;;;;;8.30;3.57;;;;;;;;;;4999796;28;20226;-76
2024/01/10 07:03:04;;;;;;;7.27;3.37;;;;;;;;;;5009501;28;20194;-76
2024/01/10 07:05:31;;;;;;;10.70;4.07;;;;;;;;;;5009202;28;20187;-76
2024/01/10 07:07:57;;;;;;;11.93;3.67;;;;;;;;;;5031458;28;20300;-75
2024/01/10 07:10:27;;;;;;;10.27;4.30;;;;;;;;;;5030409;28;20206;-76
2024/01/10 07:12:53;;;;;;;7.90;3.07;;;;;;;;;;5028167;28;20196;-76
2024/01/10 07:15:18;;;;;;;8.93;4.07;;;;;;;;;;5029639;28;20269;-76
2024/01/10 07:17:44;;;;;;;9.00;3.50;;;;;;;;;;5012272;28;20178;-76
2024/01/10 07:20:12;;;;;;;11.83;3.50;;;;;;;;;;5016241;28;20187;-76
2024/01/10 07:22:44;;;;;;;9.03;3.77;;;;;;;;;;5015022;28;20254;-76
2024/01/10 07:25:14;;;;;;;9.40;4.17;;;;;;;;;;4995019;28;20183;-76
2024/01/10 07:27:45;;;;;;;8.60;3.57;;;;;;;;;;5009690;28;20562;-75
2024/01/10 07:30:13;;;;;;;8.97;3.77;;;;;;;;;;5006472;28;20191;-76
2024/01/10 07:32:43;;;;;;;8.03;3.27;;;;;;;;;;5011476;28;20670;-76
2024/01/10 07:35:09;;;;;;;9.70;3.97;;;;;;;;;;5013015;28;20654;-76
2024/01/10 07:37:39;;;;;;;12.07;3.57;;;;;;;;;;5006489;28;20232;-76
2024/01/10 07:40:06;;;;;;;9.13;3.90;;;;;;;;;;5000283;28;20686;-75
2024/01/10 07:42:35;;;;;;;5.73;3.17;;;;;;;;;;5001340;28;20256;-76
2024/01/10 07:45:11;;;;;;;11.70;4.00;;;;;;;;;;5005414;28;20187;-76
2024/01/10 07:47:38;;;;;;;9.63;3.80;;;;;;;;;;5010311;28;20549;-75
2024/01/10 07:50:07;;;;;;;7.57;3.23;;;;;;;;;;5012927;28;20183;-76
2024/01/10 07:52:34;;;;;;;7.10;2.97;;;;;;;;;;5002995;28;20213;-76
2024/01/10 07:55:00;;;;;;;8.03;3.60;;;;;;;;;;4987430;28;20637;-76
2024/01/10 07:57:26;;;;;;;11.20;3.53;;;;;;;;;;5002562;28;20191;-76
2024/01/10 07:59:52;;;;;;;8.43;3.90;;;;;;;;;;5008790;28;20204;-76
2024/01/10 08:02:18;;;;;;;11.47;3.63;;;;;;;;;;5000703;28;20190;-76
2024/01/10 08:04:43;;;;;;;9.83;3.87;;;;;;;;;;5004977;28;20585;-76
2024/01/10 08:07:09;;;;;;;8.40;2.80;;;;;;;;;;5024325;28;20562;-75
2024/01/10 08:09:36;;;;;;;9.70;3.57;;;;;;;;;;5007170;28;20671;-75
2024/01/10 08:12:02;;;;;;;12.40;3.67;;;;;;;;;;5006967;28;20665;-76
2024/01/10 08:14:28;;;;;;;9.97;3.87;;;;;;;;;;4993226;28;20183;-76
2024/01/10 08:16:54;;;;;;;9.47;3.90;;;;;;;;;;5007688;28;20534;-76
2024/01/10 08:19:20;;;;;;;9.03;3.77;;;;;;;;;;5005035;28;20206;-75
2024/01/10 08:21:45;;;;;;;6.23;3.07;;;;;;;;;;5018396;28;20601;-76
2024/01/10 08:24:11;;;;;;;9.77;3.77;;;;;;;;;;5028229;28;20228;-76
2024/01/10 08:26:37;;;;;;;6.90;3.23;;;;;;;;;;5023335;28;20511;-75
2024/01/10 08:29:03;;;;;;;12.87;3.80;;;;;;;;;;5021227;28;20221;-75
2024/01/10 08:31:29;;;;;;;8.53;3.63;;;;;;;;;;5025561;28;20187;-75
2024/01/10 08:33:54;;;;;;;8.63;4.17;;;;;;;;;;5003316;28;20214;-76
2024/01/10 08:36:20;;;;;;;9.70;4.13;;;;;;;;;;5022173;28;20252;-74
2024/01/10 08:38:45;;;;;;;9.13;4.20;;;;;;;;;;5028603;28;20255;-75
2024/01/10 08:41:12;;;;;;;10.43;3.80;;;;;;;;;;5015280;28;20240;-76
2024/01/10 08:43:38;;;;;;;10.03;4.13;;;;;;;;;;5046988;28;20182;-75
2024/01/10 08:46:03;;;;;;;11.93;4.37;;;;;;;;;;5031756;28;20186;-76
2024/01/10 08:48:29;;;;;;;7.93;3.80;;;;;;;;;;5031330;28;20564;-75
2024/01/10 08:50:56;;;;;;;11.67;3.83;;;;;;;;;;5033757;28;20425;-75
2024/01/10 08:53:22;;;;;;;10.93;3.77;;;;;;;;;;5022808;28;20219;-75
2024/01/10 08:55:47;;;;;;;9.30;3.77;;;;;;;;;;5031540;28;20267;-75
2024/01/10 08:58:12;;;;;;;10.00;3.90;;;;;;;;;;5006815;28;20236;-75
2024/01/10 09:00:38;;;;;;;7.67;3.70;;;;;;;;;;5032692;28;20201;-77
2024/01/10 09:03:04;;;;;;;8.77;4.10;;;;;;;;;;5033653;28;20190;-75
2024/01/10 09:05:30;;;;;;;11.77;4.17;;;;;;;;;;5031504;28;20194;-76
2024/01/10 09:07:55;;;;;;;12.37;4.40;;;;;;;;;;5032938;28;20262;-76
2024/01/10 09:10:21;;;;;;;7.00;3.73;;;;;;;;;;5033112;28;20251;-75
2024/01/10 09:12:47;;;;;;;9.47;4.60;;;;;;;;;;5013559;28;20190;-76
2024/01/10 09:15:14;;;;;;;9.40;3.93;;;;;;;;;;5020717;28;20201;-76
2024/01/10 09:17:43;;;;;;;15.00;4.47;;;;;;;;;;5025785;28;20187;-76
2024/01/10 09:20:10;;;;;;;11.53;5.00;;;;;;;;;;5014792;28;20240;-77
2024/01/10 09:22:35;;;;;;;10.53;4.30;;;;;;;;;;5010987;28;20657;-76
2024/01/10 09:25:04;;;;;;;10.63;4.53;;;;;;;;;;5012545;28;20187;-77
2024/01/10 09:27:43;;;;;;;9.77;4.03;;;;;;;;;;5012265;28;20207;-77
2024/01/10 09:30:09;;;;;;;9.20;3.93;;;;;;;;;;5012655;28;20183;-75
2024/01/10 09:32:36;;;;;;;9.93;4.30;;;;;;;;;;5012708;28;20245;-76
2024/01/10 09:35:01;;;;;;;9.43;4.23;;;;;;;;;;4978336;28;20218;-75
2024/01/10 09:37:27;;;;;;;9.07;4.20;;;;;;;;;;5010956;28;20206;-77
2024/01/10 09:39:52;;;;;;;9.63;4.97;;;;;;;;;;5025012;28;20194;-77
2024/01/10 09:42:19;;;;;;;9.27;4.20;;;;;;;;;;5011544;28;20178;-76
2024/01/10 09:44:46;;;;;;;10.90;4.40;;;;;;;;;;5039216;28;20561;-77
2024/01/10 09:47:13;;;;;;;9.97;4.30;;;;;;;;;;5011428;28;20190;-77
2024/01/10 09:49:39;;;;;;;8.83;4.03;;;;;;;;;;5000715;28;20202;-77
2024/01/10 09:52:09;;;;;;;8.23;4.40;;;;;;;;;;5007213;28;20183;-76
2024/01/10 09:54:38;;;;;;;8.50;4.33;;;;;;;;;;5004257;28;20648;-77
2024/01/10 09:57:03;;;;;;;8.73;4.47;;;;;;;;;;5015369;28;20183;-77
2024/01/10 09:59:29;;;;;;;8.83;3.87;;;;;;;;;;5026504;28;20186;-76
2024/01/10 10:01:56;;;;;;;10.70;4.40;;;;;;;;;;5001036;28;20191;-77
2024/01/10 10:04:27;;;;;;;10.13;4.67;;;;;;;;;;5005500;28;20195;-77
2024/01/10 10:07:01;;;;;;;10.07;4.60;;;;;;;;;;4996715;28;20183;-77
2024/01/10 10:09:29;;;;;;;7.07;3.80;;;;;;;;;;4999541;28;20350;-76
2024/01/10 10:11:55;;;;;;;13.70;4.97;;;;;;;;;;5010799;28;20182;-76
2024/01/10 10:14:22;;;;;;;10.53;4.50;;;;;;;;;;4999954;28;20191;-76
2024/01/10 10:16:47;;;;;;;10.00;3.93;;;;;;;;;;5009776;28;20187;-76
2024/01/10 10:19:23;;;;;;;11.20;5.10;;;;;;;;;;5017594;28;20202;-77
2024/01/10 10:21:48;;;;;;;9.20;4.63;;;;;;;;;;5013306;28;20589;-77
2024/01/10 10:24:14;;;;;;;13.90;4.97;;;;;;;;;;5026546;28;20189;-76
2024/01/10 10:26:41;;;;;;;11.60;5.33;;;;;;;;;;5034106;28;20194;-77
2024/01/10 10:29:06;;;;;;;10.10;4.63;;;;;;;;;;5000751;28;20215;-77
2024/01/10 10:31:32;;;;;;;10.30;4.90;;;;;;;;;;5023994;28;20189;-77
2024/01/10 10:34:00;;;;;;;10.03;4.30;;;;;;;;;;5007973;28;20660;-77
2024/01/10 10:36:25;;;;;;;10.13;4.73;;;;;;;;;;5027135;28;20179;-77
2024/01/10 10:38:50;;;;;;;9.53;4.60;;;;;;;;;;5030661;28;20181;-76
2024/01/10 10:41:16;;;;;;;9.30;5.10;;;;;;;;;;5011355;28;20194;-77
2024/01/10 10:43:42;;;;;;;10.40;4.33;;;;;;;;;;5028213;28;20380;-76
2024/01/10 10:46:09;;;;;;;9.10;4.67;;;;;;;;;;5027296;28;20213;-76
2024/01/10 10:48:35;;;;;;;10.47;4.67;;;;;;;;;;5032531;28;20944;-75
2024/01/10 10:51:08;;;;;;;9.23;4.30;;;;;;;;;;5032118;28;20226;-76
2024/01/10 10:53:40;;;;;;;13.93;5.13;;;;;;;;;;5030920;28;20182;-75
2024/01/10 10:56:07;;;;;;;11.23;4.87;;;;;;;;;;5033606;28;20213;-76
2024/01/10 10:58:38;;;;;;;11.07;4.57;;;;;;;;;;5023556;28;20197;-76
2024/01/10 11:01:06;;;;;;;8.87;4.73;;;;;;;;;;5036392;28;20669;-76
2024/01/10 11:03:35;;;;;;;12.23;5.20;;;;;;;;;;5017449;28;20174;-76
2024/01/10 11:06:02;;;;;;;10.83;4.80;;;;;;;;;;5006095;28;20219;-76
2024/01/10 11:08:29;;;;;;;9.20;4.47;;;;;;;;;;5016164;28;20306;-76
2024/01/10 11:10:56;;;;;;;8.63;4.70;;;;;;;;;;5014394;28;20187;-76
2024/01/10 11:13:49;;;;;;;10.70;5.03;;;;;;;;;;5011565;28;20178;-76
2024/01/10 11:16:57;;;;;;;9.47;4.27;;;;;;;;;;5006180;28;20198;-76
2024/01/10 11:19:49;;;;;;;9.47;3.97;;;;;;;;;;4999671;28;20333;-76
2024/01/10 11:22:43;;;;;;;13.47;4.67;;;;;;;;;;5024618;28;20594;-76
2024/01/10 11:25:10;;;;;;;8.77;3.93;;;;;;;;;;4990793;28;20195;-75
2024/01/10 11:27:36;;;;;;;10.53;3.93;;;;;;;;;;4992062;28;20209;-76
2024/01/10 11:30:04;;;;;;;11.53;4.67;;;;;;;;;;5001160;28;20266;-77
2024/01/10 11:32:31;;;;;;;10.77;4.50;;;;;;;;;;5001081;28;20218;-76
2024/01/10 11:34:58;;;;;;;10.77;4.60;;;;;;;;;;5009607;28;20183;-77
2024/01/10 11:37:29;;;;;;;8.50;4.90;;;;;;;;;;4996705;28;20547;-77
2024/01/10 11:39:54;;;;;;;8.20;5.00;;;;;;;;;;5004909;28;20195;-77
2024/01/10 11:42:40;;;;;;;9.30;4.90;;;;;;;;;;5012619;28;20183;-77
2024/01/10 11:45:05;;;;;;;9.93;4.57;;;;;;;;;;5020313;28;20492;-76
2024/01/10 11:47:31;;;;;;;9.73;4.57;;;;;;;;;;5007899;28;20190;-77
2024/01/10 11:49:58;;;;;;;8.60;4.40;;;;;;;;;;5021030;28;20654;-76
2024/01/10 11:52:31;;;;;;;9.30;4.43;;;;;;;;;;4995461;28;20314;-76
2024/01/10 11:54:57;;;;;;;7.13;4.23;;;;;;;;;;4993075;28;20582;-76
2024/01/10 11:57:26;;;;;;;10.73;4.87;;;;;;;;;;5016194;28;20262;-76
2024/01/10 11:59:53;;;;;;;11.77;5.00;;;;;;;;;;5014698;28;20193;-76
2024/01/10 12:02:20;;;;;;;10.17;4.50;;;;;;;;;;4993935;28;20183;-77
2024/01/10 12:04:46;;;;;;;9.80;4.50;;;;;;;;;;5006784;28;20187;-76
2024/01/10 12:07:12;;;;;;;9.20;4.40;;;;;;;;;;5019285;28;20266;-77
2024/01/10 12:09:39;;;;;;;10.67;4.60;;;;;;;;;;4999488;28;20519;-76
2024/01/10 12:12:05;;;;;;;10.90;4.80;;;;;;;;;;4990256;28;20257;-76
2024/01/10 12:14:31;;;;;;;10.53;4.60;;;;;;;;;;5023879;28;20178;-76
2024/01/10 12:16:59;;;;;;;9.57;4.20;;;;;;;;;;5002807;28;20207;-76
2024/01/10 12:19:24;;;;;;;11.10;4.93;;;;;;;;;;5013376;28;20277;-76
2024/01/10 12:21:50;;;;;;;12.43;4.57;;;;;;;;;;5017117;28;20316;-76
2024/01/10 12:24:16;;;;;;;9.40;4.20;;;;;;;;;;5013491;28;20622;-76
2024/01/10 12:26:46;;;;;;;9.00;4.73;;;;;;;;;;5028045;28;20278;-76
2024/01/10 12:29:11;;;;;;;10.23;4.70;;;;;;;;;;5036358;28;20217;-76
2024/01/10 12:31:37;;;;;;;8.73;4.77;;;;;;;;;;5003831;28;20609;-76
2024/01/10 12:34:03;;;;;;;10.33;4.70;;;;;;;;;;5029132;28;20185;-76
2024/01/10 12:36:28;;;;;;;10.53;4.87;;;;;;;;;;5015374;28;20191;-76
2024/01/10 12:38:54;;;;;;;8.73;4.50;;;;;;;;;;5005851;28;20174;-76
2024/01/10 12:41:20;;;;;;;8.80;4.67;;;;;;;;;;5037047;28;20285;-76
2024/01/10 12:43:55;;;;;;;9.30;3.77;;;;;;;;;;4998099;28;20200;-77
2024/01/10 12:46:21;;;;;;;9.13;4.57;;;;;;;;;;5007886;28;20606;-77
2024/01/10 12:49:00;;;;;;;9.80;5.07;;;;;;;;;;5037592;28;20261;-77
2024/01/10 12:51:26;;;;;;;8.83;4.83;;;;;;;;;;5032573;28;20240;-76
2024/01/10 12:53:52;;;;;;;11.70;4.63;;;;;;;;;;5033025;28;20265;-76
2024/01/10 12:56:18;;;;;;;9.43;4.80;;;;;;;;;;5036870;28;20196;-76
2024/01/10 12:58:43;;;;;;;11.43;5.00;;;;;;;;;;5039527;28;20221;-76
2024/01/10 13:01:09;;;;;;;9.97;4.63;;;;;;;;;;5012204;28;20280;-76
2024/01/10 13:03:35;;;;;;;10.77;5.30;;;;;;;;;;5022582;28;20188;-76
2024/01/10 13:06:01;;;;;;;9.53;4.27;;;;;;;;;;5019569;28;20233;-76
2024/01/10 13:08:26;;;;;;;9.07;4.97;;;;;;;;;;5030362;28;20214;-78
2024/01/10 13:10:52;;;;;;;9.77;4.53;;;;;;;;;;5013429;28;20239;-76
2024/01/10 13:13:21;;;;;;;8.80;4.30;;;;;;;;;;5006966;28;20269;-76
2024/01/10 13:15:47;;;;;;;10.33;5.17;;;;;;;;;;5016500;28;20186;-76
2024/01/10 13:18:14;;;;;;;9.90;5.03;;;;;;;;;;5013563;28;20194;-76
2024/01/10 13:20:39;;;;;;;11.97;5.47;;;;;;;;;;5013530;28;20228;-76
2024/01/10 13:23:05;;;;;;;11.93;5.20;;;;;;;;;;5019221;28;20234;-76
2024/01/10 13:25:31;;;;;;;9.50;4.67;;;;;;;;;;5031672;28;20531;-76
2024/01/10 13:27:57;;;;;;;10.23;4.93;;;;;;;;;;5023031;28;20259;-76
2024/01/10 13:30:23;;;;;;;9.17;5.00;;;;;;;;;;5021195;28;20252;-77
2024/01/10 13:32:48;;;;;;;9.93;4.93;;;;;;;;;;5003194;28;20245;-77
2024/01/10 13:35:14;;;;;;;9.97;4.83;;;;;;;;;;5028289;28;20201;-77
2024/01/10 13:37:40;;;;;;;9.93;5.10;;;;;;;;;;4997626;28;20179;-76
2024/01/10 13:40:12;;;;;;;11.00;4.47;;;;;;;;;;5010683;28;20272;-77
2024/01/10 13:42:41;;;;;;;10.50;4.70;;;;;;;;;;5027356;28;20189;-77
2024/01/10 13:45:13;;;;;;;8.77;5.10;;;;;;;;;;5028075;28;20197;-77
2024/01/10 13:47:39;;;;;;;10.83;4.73;;;;;;;;;;5019024;28;20214;-77
2024/01/10 13:50:08;;;;;;;8.90;4.80;;;;;;;;;;5044861;28;20612;-77
2024/01/10 13:52:34;;;;;;;8.33;4.60;;;;;;;;;;5028783;28;20265;-77
2024/01/10 13:55:00;;;;;;;9.53;4.50;;;;;;;;;;5011299;28;20273;-77
2024/01/10 13:57:26;;;;;;;11.13;5.10;;;;;;;;;;5026571;28;20264;-77
2024/01/10 13:59:51;;;;;;;8.50;4.70;;;;;;;;;;5037554;28;20525;-77
2024/01/10 14:02:19;;;;;;;10.10;4.73;;;;;;;;;;5004624;28;20188;-77
2024/01/10 14:04:45;;;;;;;8.90;4.30;;;;;;;;;;5026509;28;20274;-77
2024/01/10 14:07:10;;;;;;;10.03;5.00;;;;;;;;;;5012975;28;20198;-77
2024/01/10 14:09:36;;;;;;;10.77;4.57;;;;;;;;;;5029100;28;20270;-76
2024/01/10 14:12:01;;;;;;;9.70;4.73;;;;;;;;;;5031285;28;20190;-76
2024/01/10 14:14:27;;;;;;;9.30;4.67;;;;;;;;;;5029178;28;20269;-76
2024/01/10 14:16:52;;;;;;;11.10;4.23;;;;;;;;;;5026596;28;20285;-76
2024/01/10 14:19:17;;;;;;;9.97;4.70;;;;;;;;;;5014204;28;20837;-77
2024/01/10 14:21:44;;;;;;;8.83;4.20;;;;;;;;;;5005057;28;20239;-77
2024/01/10 14:24:09;;;;;;;9.60;4.77;;;;;;;;;;4994457;28;20225;-77
2024/01/10 14:26:35;;;;;;;12.30;5.07;;;;;;;;;;5028775;28;20206;-77
2024/01/10 14:29:01;;;;;;;9.40;4.53;;;;;;;;;;5012594;28;20538;-76
2024/01/10 14:31:26;;;;;;;9.83;4.70;;;;;;;;;;5015256;28;20566;-77
2024/01/10 14:33:51;;;;;;;14.67;5.10;;;;;;;;;;5010648;28;20332;-77